Details From KINW - WINSLOW LINDBERGH RGNL
To KRQE - WINDOW ROCK
Flight Number -
Tags generated
Created
Modified
Stats Distance 92 nm / 170 km
Max Altitude 7,400 ft / 2,256 m
Waypoints 3
Social Downloads 0
Likes 0
Share VATSIM

Download

Looking for another format? Having issues loading an existing format? Contact us
Advertisement - Login to hide

Notes

Basic altitude profile: - Ascent Rate: 500ft/min - Ascent Speed: 100kts - Cruise Altitude: 5000ft - Cruise Speed: 120kts - Descent Rate: 700ft/min - Descent Speed: 100kts Options: - Use NATs: yes - Use PACOTS: yes - Use low airways: yes - Use high airways: yes

Route

KINW BUTTE KRQE

ID Type Via Altitude Latitude Longitude Leg Dist Tot Dist Heading (true) Name
O KINW APT - 0 ft / 0 m 35.02159˚ -110.72455˚ - 0 nm - WINSLOW LINDBERGH RGNL
BUTTE FIX - 7,400 ft / 2,256 m 35.28476˚ -110.45021˚ 20 nm 20 nm 40° / 41° -
O KRQE APT - 0 ft / 0 m 35.65207˚ -109.06738˚ 71 nm 91 nm 72° / 72° WINDOW ROCK

Altitude Profile

Advertisement - Login to hide

KINW

Details ICAO KINW (INW)
Name WINSLOW LINDBERGH RGNL
Region United States
Timezone America/Phoenix (UTC-7.0)
Stats Elevation 4,941 ft / 1,506 m (AMSL)
Location 35.021593° -110.724553°
Runways 3
Magnetic Variation 10.130° E

METAR

KINW 140056Z AUTO 00000KT 10SM CLR 02/M20 A3006 RMK AO2 SLP210 T00171200

Decode

TAF

KINW 132336Z 1400/1424 VRB05KT P6SM SKC FM142100 34016G26KT P6SM SKC

Decode

Departure Runways

ID Width Length Bearing (true) Bearing (mag) Surface Threshold Offset Overrun Length
04 150 ft / 46 m 7,491 ft / 2,283 m 58.49° 48.36° Asphalt 0 ft / 0 m 0 ft / 0 m
11 150 ft / 46 m 7,092 ft / 2,162 m 119.77° 109.64° Asphalt 190 ft / 58 m 398 ft / 121 m
17 150 ft / 46 m 6,102 ft / 1,860 m 184.66° 174.53° Asphalt 0 ft / 0 m 0 ft / 0 m
22 150 ft / 46 m 7,491 ft / 2,283 m 238.50° 228.37° Asphalt 1,258 ft / 383 m 0 ft / 0 m
29 150 ft / 46 m 7,092 ft / 2,162 m 299.78° 289.65° Asphalt 373 ft / 114 m 0 ft / 0 m
35 150 ft / 46 m 6,102 ft / 1,860 m 4.66° 354.53° Asphalt 0 ft / 0 m 0 ft / 0 m

KRQE

Details ICAO KRQE
Name WINDOW ROCK
Region United States
Timezone America/Denver (UTC-7.0)
Stats Elevation 6,742 ft / 2,055 m (AMSL)
Location 35.652067° -109.067376°
Runways 1
Magnetic Variation 9.610° E

METAR

KRQE 140053Z AUTO 00000KT 10SM CLR 05/M15 A3007 RMK AO2 SLP189 T00501150 TSNO

Decode

TAF

Not found

Destination Runways

ID Width Length Bearing (true) Bearing (mag) Surface Threshold Offset Overrun Length
02 75 ft / 23 m 7,006 ft / 2,135 m 33.93° 24.32° Asphalt 0 ft / 0 m 0 ft / 0 m
20 75 ft / 23 m 7,006 ft / 2,135 m 213.94° 204.33° Asphalt 0 ft / 0 m 0 ft / 0 m

Popular Alternatives